Time;durP1;ratioP1;P1;durP2;ratioP2;P2;SDS_P1;SDS_P2;PMS_P1;PMS_P2;Temp;Humidity;BMP_temperature;BMP_pressure;BME280_temperature;BME280_humidity;BME280_pressure;Samples;Min_cycle;Max_cycle;Signal;HPM_P1;HPM_P2
2024/03/14 00:00:45;;;;;;;;;;;;;;;;;;4944742;28;92580;-73
2024/03/14 00:03:10;;;;;;;;;;;;;;;;;;4944182;28;92889;-73
2024/03/14 00:05:35;;;;;;;;;;;;;;;;;;4944395;28;93011;-74
2024/03/14 00:08:00;;;;;;;;;;;;;;;;;;4945601;28;91940;-73
2024/03/14 00:10:26;;;;;;;;;;;;;;;;;;4945100;28;92618;-74
2024/03/14 00:12:51;;;;;;;;;;;;;;;;;;4948256;28;93314;-73
2024/03/14 00:15:17;;;;;;;;;;;;;;;;;;4944384;28;93889;-74
2024/03/14 00:17:44;;;;;;;;;;;;;;;;;;4945028;28;92728;-73
2024/03/14 00:20:11;;;;;;;;;;;;;;;;;;4944920;28;92371;-73
2024/03/14 00:22:37;;;;;;;;;;;;;;;;;;4944578;28;92615;-74
2024/03/14 00:25:02;;;;;;;;;;;;;;;;;;4944595;28;92825;-74
2024/03/14 00:27:28;;;;;;;;;;;;;;;;;;4944432;28;92588;-73
2024/03/14 00:29:55;;;;;;;;;;;;;;;;;;4944742;28;92627;-74
2024/03/14 00:32:20;;;;;;;;;;;;;;;;;;4945003;28;92370;-73
2024/03/14 00:34:46;;;;;;;;;;;;;;;;;;4947360;28;92712;-74
2024/03/14 00:37:13;;;;;;;;;;;;;;;;;;4944206;28;92883;-74
2024/03/14 00:39:39;;;;;;;;;;;;;;;;;;4944042;28;93179;-74
2024/03/14 00:42:06;;;;;;;;;;;;;;;;;;4945004;28;93901;-73
2024/03/14 00:44:31;;;;;;;;;;;;;;;;;;4944911;28;93577;-73
2024/03/14 00:46:56;;;;;;;;;;;;;;;;;;4946651;28;92612;-73
2024/03/14 00:49:23;;;;;;;;;;;;;;;;;;4946545;28;92907;-74
2024/03/14 00:51:48;;;;;;;;;;;;;;;;;;4947104;28;92725;-73
2024/03/14 00:54:13;;;;;;;;;;;;;;;;;;4945476;28;92304;-73
2024/03/14 00:56:38;;;;;;;;;;;;;;;;;;4949935;28;95509;-74
2024/03/14 00:59:04;;;;;;;;;;;;;;;;;;4947363;28;92673;-73
2024/03/14 01:01:29;;;;;;;;;;;;;;;;;;4945255;28;92959;-74
2024/03/14 01:03:57;;;;;;;;;;;;;;;;;;4944225;28;94438;-73
2024/03/14 01:06:24;;;;;;;;;;;;;;;;;;4948249;28;92301;-74
2024/03/14 01:08:49;;;;;;;;;;;;;;;;;;4946769;28;95076;-73
2024/03/14 01:11:18;;;;;;;;;;;;;;;;;;4947673;28;93969;-73
2024/03/14 01:13:44;;;;;;;;;;;;;;;;;;4947453;28;92839;-73
2024/03/14 01:16:09;;;;;;;;;;;;;;;;;;4950568;28;92982;-73
2024/03/14 01:18:35;;;;;;;;;;;;;;;;;;4947556;28;93282;-73
2024/03/14 01:21:00;;;;;;;;;;;;;;;;;;4946153;28;94226;-74
2024/03/14 01:23:25;;;;;;;;;;;;;;;;;;4946489;28;93990;-74
2024/03/14 01:25:50;;;;;;;;;;;;;;;;;;4947263;28;92690;-74
2024/03/14 01:28:16;;;;;;;;;;;;;;;;;;4946519;28;93928;-74
2024/03/14 01:30:42;;;;;;;;;;;;;;;;;;4947965;28;92433;-73
2024/03/14 01:33:07;;;;;;;;;;;;;;;;;;4946138;28;92675;-74
2024/03/14 01:35:33;;;;;;;;;;;;;;;;;;4947503;28;93449;-73
2024/03/14 01:37:59;;;;;;;;;;;;;;;;;;4950242;28;92802;-73
2024/03/14 01:40:24;;;;;;;;;;;;;;;;;;4947125;28;92621;-73
2024/03/14 01:42:54;;;;;;;;;;;;;;;;;;4947123;28;93660;-73
2024/03/14 01:45:19;;;;;;;;;;;;;;;;;;4947617;28;91766;-73
2024/03/14 01:47:44;;;;;;;;;;;;;;;;;;4947515;28;92481;-73
2024/03/14 01:50:11;;;;;;;;;;;;;;;;;;4946726;28;93506;-73
2024/03/14 01:52:36;;;;;;;;;;;;;;;;;;4945561;28;93523;-74
2024/03/14 01:55:04;;;;;;;;;;;;;;;;;;4947360;28;93335;-73
2024/03/14 01:57:30;;;;;;;;;;;;;;;;;;4945535;28;94350;-74
2024/03/14 01:59:58;;;;;;;;;;;;;;;;;;4949880;28;92973;-73
2024/03/14 02:02:23;;;;;;;;;;;;;;;;;;4947201;28;93640;-73
2024/03/14 02:05:10;;;;;;;;;;;;;;;;;;4947071;28;92622;-74
2024/03/14 02:07:36;;;;;;;;;;;;;;;;;;4946234;28;92595;-74
2024/03/14 02:10:01;;;;;;;;;;;;;;;;;;4945435;28;95058;-73
2024/03/14 02:12:26;;;;;;;;;;;;;;;;;;4946971;28;92279;-74
2024/03/14 02:14:52;;;;;;;;;;;;;;;;;;4946619;28;92719;-73
2024/03/14 02:17:17;;;;;;;;;;;;;;;;;;4945641;28;96660;-73
2024/03/14 02:19:42;;;;;;;;;;;;;;;;;;4948088;28;92261;-74
2024/03/14 02:22:16;;;;;;;;;;;;;;;;;;4951246;28;92758;-73
2024/03/14 02:24:41;;;;;;;;;;;;;;;;;;4949176;28;92525;-74
2024/03/14 02:27:07;;;;;;;;;;;;;;;;;;4948691;28;92616;-73
2024/03/14 02:29:32;;;;;;;;;;;;;;;;;;4949177;28;93060;-73
2024/03/14 02:31:57;;;;;;;;;;;;;;;;;;4949164;28;92222;-74
2024/03/14 02:34:22;;;;;;;;;;;;;;;;;;4949867;28;92739;-74
2024/03/14 02:36:48;;;;;;;;;;;;;;;;;;4949345;28;94435;-73
2024/03/14 02:39:17;;;;;;;;;;;;;;;;;;4947333;28;92903;-73
2024/03/14 02:41:42;;;;;;;;;;;;;;;;;;4946479;28;93165;-73
2024/03/14 02:44:15;;;;;;;;;;;;;;;;;;4949566;28;92811;-74
2024/03/14 02:46:40;;;;;;;;;;;;;;;;;;4946692;28;92773;-74
2024/03/14 02:49:05;;;;;;;;;;;;;;;;;;4946859;28;93326;-74
2024/03/14 02:51:31;;;;;;;;;;;;;;;;;;4946692;28;93072;-74
2024/03/14 02:53:56;;;;;;;;;;;;;;;;;;4946420;28;93019;-73
2024/03/14 02:56:21;;;;;;;;;;;;;;;;;;4946360;28;92966;-74
2024/03/14 02:58:46;;;;;;;;;;;;;;;;;;4947340;28;91478;-73
2024/03/14 03:01:12;;;;;;;;;;;;;;;;;;4946680;28;93496;-74
2024/03/14 03:03:38;;;;;;;;;;;;;;;;;;4945139;28;95296;-73
2024/03/14 03:06:05;;;;;;;;;;;;;;;;;;4948921;28;93555;-73
2024/03/14 03:08:31;;;;;;;;;;;;;;;;;;4945078;28;95208;-73
2024/03/14 03:10:56;;;;;;;;;;;;;;;;;;4946531;28;92392;-73
2024/03/14 03:13:21;;;;;;;;;;;;;;;;;;4945789;28;92170;-73
2024/03/14 03:15:47;;;;;;;;;;;;;;;;;;4945565;28;93438;-73
2024/03/14 03:18:13;;;;;;;;;;;;;;;;;;4946067;28;92209;-73
2024/03/14 03:20:38;;;;;;;;;;;;;;;;;;4945980;28;92569;-73
2024/03/14 03:23:06;;;;;;;;;;;;;;;;;;4946109;28;92762;-73
2024/03/14 03:25:35;;;;;;;;;;;;;;;;;;4948855;28;92728;-73
2024/03/14 03:28:02;;;;;;;;;;;;;;;;;;4944696;28;92891;-73
2024/03/14 03:30:27;;;;;;;;;;;;;;;;;;4944745;28;93458;-74
2024/03/14 03:32:52;;;;;;;;;;;;;;;;;;4945727;28;93352;-74
2024/03/14 03:35:18;;;;;;;;;;;;;;;;;;4945399;28;92773;-73
2024/03/14 03:37:47;;;;;;;;;;;;;;;;;;4945716;28;92308;-73
2024/03/14 03:40:15;;;;;;;;;;;;;;;;;;4945769;28;93482;-73
2024/03/14 03:42:45;;;;;;;;;;;;;;;;;;4959870;28;94378;-73
2024/03/14 03:45:11;;;;;;;;;;;;;;;;;;4944610;28;92943;-74
2024/03/14 03:47:37;;;;;;;;;;;;;;;;;;4948208;28;92797;-73
2024/03/14 03:50:03;;;;;;;;;;;;;;;;;;4944279;28;92652;-73
2024/03/14 03:52:28;;;;;;;;;;;;;;;;;;4944783;28;93453;-73
2024/03/14 03:54:53;;;;;;;;;;;;;;;;;;4942761;28;95767;-73
2024/03/14 03:57:19;;;;;;;;;;;;;;;;;;4945275;28;92310;-74
2024/03/14 03:59:44;;;;;;;;;;;;;;;;;;4946344;28;93497;-74
2024/03/14 04:02:10;;;;;;;;;;;;;;;;;;4945964;28;92693;-74
2024/03/14 04:04:37;;;;;;;;;;;;;;;;;;4946519;28;92733;-74
2024/03/14 04:07:03;;;;;;;;;;;;;;;;;;4946835;28;92842;-74
2024/03/14 04:09:29;;;;;;;;;;;;;;;;;;4949573;28;92817;-73
2024/03/14 04:11:54;;;;;;;;;;;;;;;;;;4946838;28;95374;-73
2024/03/14 04:14:19;;;;;;;;;;;;;;;;;;4947350;28;92852;-73
2024/03/14 04:16:44;;;;;;;;;;;;;;;;;;4947724;28;92656;-73
2024/03/14 04:19:10;;;;;;;;;;;;;;;;;;4944224;28;93493;-73
2024/03/14 04:21:36;;;;;;;;;;;;;;;;;;4944266;28;93076;-74
2024/03/14 04:24:01;;;;;;;;;;;;;;;;;;4944362;28;92180;-73
2024/03/14 04:26:27;;;;;;;;;;;;;;;;;;4944695;28;92657;-74
2024/03/14 04:28:52;;;;;;;;;;;;;;;;;;4944521;28;93159;-73
2024/03/14 04:31:19;;;;;;;;;;;;;;;;;;4947402;28;92678;-73
2024/03/14 04:33:44;;;;;;;;;;;;;;;;;;4944373;28;92315;-73
2024/03/14 04:36:09;;;;;;;;;;;;;;;;;;4943887;28;92727;-74
2024/03/14 04:38:35;;;;;;;;;;;;;;;;;;4944794;28;92676;-73
2024/03/14 04:41:00;;;;;;;;;;;;;;;;;;4943358;28;95606;-73
2024/03/14 04:43:25;;;;;;;;;;;;;;;;;;4944074;28;93741;-73
2024/03/14 04:45:52;;;;;;;;;;;;;;;;;;4944203;28;93760;-72
2024/03/14 04:48:17;;;;;;;;;;;;;;;;;;4936829;28;92610;-74
2024/03/14 04:50:43;;;;;;;;;;;;;;;;;;4932621;28;92890;-74
2024/03/14 04:53:09;;;;;;;;;;;;;;;;;;4941154;28;92251;-73
2024/03/14 04:55:35;;;;;;;;;;;;;;;;;;4932878;28;93430;-73
2024/03/14 04:58:00;;;;;;;;;;;;;;;;;;4933581;28;94946;-73
2024/03/14 05:00:25;;;;;;;;;;;;;;;;;;4930919;28;92850;-73
2024/03/14 05:02:51;;;;;;;;;;;;;;;;;;4931057;28;93168;-74
2024/03/14 05:05:21;;;;;;;;;;;;;;;;;;4937278;28;93670;-73
2024/03/14 05:07:48;;;;;;;;;;;;;;;;;;4933547;28;94077;-73
2024/03/14 05:10:14;;;;;;;;;;;;;;;;;;4929324;28;92763;-74
2024/03/14 05:12:39;;;;;;;;;;;;;;;;;;4932120;28;92895;-73
2024/03/14 05:15:05;;;;;;;;;;;;;;;;;;4935170;28;93002;-74
2024/03/14 05:17:31;;;;;;;;;;;;;;;;;;4930968;28;93111;-74
2024/03/14 05:19:56;;;;;;;;;;;;;;;;;;4935138;28;93197;-73
2024/03/14 05:22:22;;;;;;;;;;;;;;;;;;4928713;28;92319;-73
2024/03/14 05:24:48;;;;;;;;;;;;;;;;;;4931226;28;91539;-73
2024/03/14 05:27:13;;;;;;;;;;;;;;;;;;4929812;28;93776;-74
2024/03/14 05:29:39;;;;;;;;;;;;;;;;;;4935235;28;93247;-74
2024/03/14 05:32:11;;;;;;;;;;;;;;;;;;4929530;28;95015;-73
2024/03/14 05:34:37;;;;;;;;;;;;;;;;;;4937042;28;92785;-73
2024/03/14 05:37:02;;;;;;;;;;;;;;;;;;4932521;28;95036;-74
2024/03/14 05:39:27;;;;;;;;;;;;;;;;;;4930369;28;93790;-74
2024/03/14 05:41:53;;;;;;;;;;;;;;;;;;4938757;28;92720;-74
2024/03/14 05:44:18;;;;;;;;;;;;;;;;;;4932705;28;92653;-74
2024/03/14 05:46:46;;;;;;;;;;;;;;;;;;4936275;28;93335;-74
2024/03/14 05:49:11;;;;;;;;;;;;;;;;;;4932855;28;93383;-74
2024/03/14 05:51:37;;;;;;;;;;;;;;;;;;4939529;28;92283;-73
2024/03/14 05:54:02;;;;;;;;;;;;;;;;;;4935766;28;92859;-74
2024/03/14 05:56:27;;;;;;;;;;;;;;;;;;4939330;28;93407;-73
2024/03/14 05:58:53;;;;;;;;;;;;;;;;;;4953869;28;94323;-74
2024/03/14 06:01:18;;;;;;;;;;;;;;;;;;4932666;28;93485;-74
2024/03/14 06:03:45;;;;;;;;;;;;;;;;;;4934618;28;93995;-73
2024/03/14 06:06:10;;;;;;;;;;;;;;;;;;4937637;28;93842;-74
2024/03/14 06:08:35;;;;;;;;;;;;;;;;;;4938623;28;92831;-73
2024/03/14 06:11:01;;;;;;;;;;;;;;;;;;4944459;28;95866;-74
2024/03/14 06:13:27;;;;;;;;;;;;;;;;;;4950262;28;95025;-74
2024/03/14 06:15:52;;;;;;;;;;;;;;;;;;4938262;28;93016;-74
2024/03/14 06:18:21;;;;;;;;;;;;;;;;;;4935817;28;93648;-74
2024/03/14 06:20:47;;;;;;;;;;;;;;;;;;4932162;28;93671;-74
2024/03/14 06:23:12;;;;;;;;;;;;;;;;;;4933203;28;93700;-74
2024/03/14 06:25:37;;;;;;;;;;;;;;;;;;4932361;28;92880;-74
2024/03/14 06:28:02;;;;;;;;;;;;;;;;;;4933017;28;93149;-74
2024/03/14 06:30:29;;;;;;;;;;;;;;;;;;4933284;28;93010;-74
2024/03/14 06:32:55;;;;;;;;;;;;;;;;;;4936902;28;93951;-74
2024/03/14 06:35:21;;;;;;;;;;;;;;;;;;4933322;28;93320;-74
2024/03/14 06:37:46;;;;;;;;;;;;;;;;;;4936114;28;93588;-74
2024/03/14 06:40:14;;;;;;;;;;;;;;;;;;4941262;28;93129;-75
2024/03/14 06:42:39;;;;;;;;;;;;;;;;;;4937257;28;92865;-74
2024/03/14 06:45:05;;;;;;;;;;;;;;;;;;4936402;28;93654;-74
2024/03/14 06:47:30;;;;;;;;;;;;;;;;;;4940984;28;92863;-74
2024/03/14 06:49:55;;;;;;;;;;;;;;;;;;4933715;28;93060;-74
2024/03/14 06:52:21;;;;;;;;;;;;;;;;;;4934335;28;92911;-74
2024/03/14 06:54:48;;;;;;;;;;;;;;;;;;4941748;28;92817;-74
2024/03/14 06:57:14;;;;;;;;;;;;;;;;;;4937730;28;95242;-74
2024/03/14 06:59:39;;;;;;;;;;;;;;;;;;4935892;28;92193;-73
2024/03/14 07:02:04;;;;;;;;;;;;;;;;;;4936113;28;91469;-74
2024/03/14 07:04:34;;;;;;;;;;;;;;;;;;4935143;28;92972;-73
2024/03/14 07:07:01;;;;;;;;;;;;;;;;;;4934704;28;92360;-74
2024/03/14 07:09:27;;;;;;;;;;;;;;;;;;4936343;28;93285;-76
2024/03/14 07:11:53;;;;;;;;;;;;;;;;;;4939670;28;93089;-74
2024/03/14 07:14:18;;;;;;;;;;;;;;;;;;4929384;28;92823;-75
2024/03/14 07:16:44;;;;;;;;;;;;;;;;;;4935652;28;92493;-73
2024/03/14 07:19:09;;;;;;;;;;;;;;;;;;4938377;28;92899;-77
2024/03/14 07:21:34;;;;;;;;;;;;;;;;;;4934273;28;92345;-76
2024/03/14 07:24:00;;;;;;;;;;;;;;;;;;4945243;28;93214;-73
2024/03/14 07:26:32;;;;;;;;;;;;;;;;;;4938809;28;91978;-76
2024/03/14 07:28:58;;;;;;;;;;;;;;;;;;4938767;28;93067;-77
2024/03/14 07:31:23;;;;;;;;;;;;;;;;;;4940580;28;92906;-75
2024/03/14 07:33:48;;;;;;;;;;;;;;;;;;4934425;28;93221;-73
2024/03/14 07:36:17;;;;;;;;;;;;;;;;;;4934356;28;95056;-74
2024/03/14 07:38:43;;;;;;;;;;;;;;;;;;4937164;28;93594;-75
2024/03/14 07:41:09;;;;;;;;;;;;;;;;;;4935815;28;93387;-76
2024/03/14 07:43:34;;;;;;;;;;;;;;;;;;4932863;28;93073;-76
2024/03/14 07:46:02;;;;;;;;;;;;;;;;;;4927371;28;92714;-74
2024/03/14 07:48:27;;;;;;;;;;;;;;;;;;4936353;28;92734;-76
2024/03/14 07:50:52;;;;;;;;;;;;;;;;;;4931861;28;92230;-76
2024/03/14 07:53:19;;;;;;;;;;;;;;;;;;4933723;28;92631;-76
2024/03/14 07:55:44;;;;;;;;;;;;;;;;;;4931204;28;92689;-79
2024/03/14 07:58:09;;;;;;;;;;;;;;;;;;4934732;28;94611;-77
2024/03/14 08:00:34;;;;;;;;;;;;;;;;;;4933317;28;92929;-73
2024/03/14 08:03:01;;;;;;;;;;;;;;;;;;4934424;28;92573;-73
2024/03/14 08:05:31;;;;;;;;;;;;;;;;;;4937112;28;92877;-73
2024/03/14 08:07:56;;;;;;;;;;;;;;;;;;4935069;28;92371;-73
2024/03/14 08:10:21;;;;;;;;;;;;;;;;;;4931791;28;93941;-76
2024/03/14 08:12:47;;;;;;;;;;;;;;;;;;4936937;28;92557;-76
2024/03/14 08:15:16;;;;;;;;;;;;;;;;;;4934350;28;93019;-77
2024/03/14 08:17:41;;;;;;;;;;;;;;;;;;4931003;28;95078;-74
2024/03/14 08:20:26;;;;;;;;;;;;;;;;;;4931924;28;92324;-72
2024/03/14 08:22:52;;;;;;;;;;;;;;;;;;4926037;28;94025;-76
2024/03/14 08:25:19;;;;;;;;;;;;;;;;;;4925067;28;95491;-73
2024/03/14 08:27:46;;;;;;;;;;;;;;;;;;4936916;28;92450;-74
2024/03/14 08:30:11;;;;;;;;;;;;;;;;;;4934209;28;92847;-74
2024/03/14 08:32:40;;;;;;;;;;;;;;;;;;4936162;28;92252;-74
2024/03/14 08:35:05;;;;;;;;;;;;;;;;;;4937063;28;93080;-75
2024/03/14 08:37:31;;;;;;;;;;;;;;;;;;4936942;28;92615;-75
2024/03/14 08:39:56;;;;;;;;;;;;;;;;;;4933373;28;92220;-75
2024/03/14 08:42:31;;;;;;;;;;;;;;;;;;4937261;28;93093;-75
2024/03/14 08:44:56;;;;;;;;;;;;;;;;;;4930155;28;95886;-75
2024/03/14 08:47:21;;;;;;;;;;;;;;;;;;4938048;28;93366;-74
2024/03/14 08:49:47;;;;;;;;;;;;;;;;;;4937681;28;93133;-74
2024/03/14 08:52:14;;;;;;;;;;;;;;;;;;4931206;28;93492;-74
2024/03/14 08:54:44;;;;;;;;;;;;;;;;;;4938903;28;92539;-73
2024/03/14 08:57:12;;;;;;;;;;;;;;;;;;4933147;28;93181;-74
2024/03/14 08:59:39;;;;;;;;;;;;;;;;;;4936713;28;92905;-74
2024/03/14 09:02:07;;;;;;;;;;;;;;;;;;4934239;28;93450;-74
2024/03/14 09:04:33;;;;;;;;;;;;;;;;;;4940147;28;95192;-74
2024/03/14 09:06:59;;;;;;;;;;;;;;;;;;4938356;28;92419;-74
2024/03/14 09:09:26;;;;;;;;;;;;;;;;;;4946292;28;95257;-74
2024/03/14 09:11:52;;;;;;;;;;;;;;;;;;4937881;28;93674;-75
2024/03/14 09:14:17;;;;;;;;;;;;;;;;;;4936295;28;94246;-74
2024/03/14 09:16:44;;;;;;;;;;;;;;;;;;4944277;28;93152;-73
2024/03/14 09:19:09;;;;;;;;;;;;;;;;;;4938792;28;93267;-75
2024/03/14 09:21:36;;;;;;;;;;;;;;;;;;4938017;28;93288;-76
2024/03/14 09:24:01;;;;;;;;;;;;;;;;;;4937390;28;92839;-78
2024/03/14 09:26:26;;;;;;;;;;;;;;;;;;4935275;28;92900;-76
2024/03/14 09:28:53;;;;;;;;;;;;;;;;;;4939166;28;94463;-75
2024/03/14 09:31:19;;;;;;;;;;;;;;;;;;4942778;28;92848;-76
2024/03/14 09:33:44;;;;;;;;;;;;;;;;;;4939420;28;92188;-74
2024/03/14 09:36:09;;;;;;;;;;;;;;;;;;4941000;28;95599;-76
2024/03/14 09:38:35;;;;;;;;;;;;;;;;;;4940774;28;92762;-76
2024/03/14 09:41:00;;;;;;;;;;;;;;;;;;4935845;28;93923;-76
2024/03/14 09:43:25;;;;;;;;;;;;;;;;;;4936933;28;92898;-74
2024/03/14 09:45:54;;;;;;;;;;;;;;;;;;4941149;28;92682;-75
2024/03/14 09:48:20;;;;;;;;;;;;;;;;;;4945335;28;92563;-74
2024/03/14 09:50:49;;;;;;;;;;;;;;;;;;4944008;28;93783;-76
2024/03/14 09:53:16;;;;;;;;;;;;;;;;;;4943198;28;92576;-74
2024/03/14 09:55:41;;;;;;;;;;;;;;;;;;4935822;28;92775;-74
2024/03/14 09:58:08;;;;;;;;;;;;;;;;;;4938529;28;92585;-74
2024/03/14 10:00:33;;;;;;;;;;;;;;;;;;4932900;28;93745;-72
2024/03/14 10:03:00;;;;;;;;;;;;;;;;;;4932884;28;95742;-73
2024/03/14 10:05:26;;;;;;;;;;;;;;;;;;4936329;28;92660;-73
2024/03/14 10:07:55;;;;;;;;;;;;;;;;;;4937666;28;92771;-72
2024/03/14 10:10:21;;;;;;;;;;;;;;;;;;4939426;28;93300;-73
2024/03/14 10:12:53;;;;;;;;;;;;;;;;;;4943669;28;92988;-74
2024/03/14 10:15:21;;;;;;;;;;;;;;;;;;4945763;28;92808;-78
2024/03/14 10:17:47;;;;;;;;;;;;;;;;;;4944817;28;91955;-74
2024/03/14 10:20:12;;;;;;;;;;;;;;;;;;4943388;28;93186;-78
2024/03/14 10:22:38;;;;;;;;;;;;;;;;;;4945189;28;92954;-77
2024/03/14 10:25:04;;;;;;;;;;;;;;;;;;4942938;28;93535;-74
2024/03/14 10:27:32;;;;;;;;;;;;;;;;;;4945009;28;94678;-76
2024/03/14 10:29:58;;;;;;;;;;;;;;;;;;4943990;28;93130;-74
2024/03/14 10:32:24;;;;;;;;;;;;;;;;;;4942888;28;92743;-76
2024/03/14 10:34:51;;;;;;;;;;;;;;;;;;4944013;28;92692;-76
2024/03/14 10:37:18;;;;;;;;;;;;;;;;;;4935931;28;93464;-76
2024/03/14 10:39:58;;;;;;;;;;;;;;;;;;4942597;28;93041;-76
2024/03/14 10:42:24;;;;;;;;;;;;;;;;;;4943970;28;92112;-76
2024/03/14 10:44:51;;;;;;;;;;;;;;;;;;4943929;28;92199;-77
2024/03/14 10:47:18;;;;;;;;;;;;;;;;;;4943765;28;92934;-77
2024/03/14 10:49:46;;;;;;;;;;;;;;;;;;4937645;28;94875;-76
2024/03/14 10:52:14;;;;;;;;;;;;;;;;;;4948894;28;93357;-77
2024/03/14 10:54:41;;;;;;;;;;;;;;;;;;4942313;28;92565;-74
2024/03/14 10:57:08;;;;;;;;;;;;;;;;;;4941685;28;92913;-74
2024/03/14 10:59:34;;;;;;;;;;;;;;;;;;4944645;28;92637;-76
2024/03/14 11:02:01;;;;;;;;;;;;;;;;;;4942633;28;93277;-76
2024/03/14 11:04:28;;;;;;;;;;;;;;;;;;4941330;28;92792;-75
2024/03/14 11:06:54;;;;;;;;;;;;;;;;;;4941789;28;92434;-76
2024/03/14 11:09:32;;;;;;;;;;;;;;;;;;4942023;28;92859;-77
2024/03/14 11:12:03;;;;;;;;;;;;;;;;;;4942481;28;94052;-76
2024/03/14 11:14:33;;;;;;;;;;;;;;;;;;4941783;28;93540;-76
2024/03/14 11:17:01;;;;;;;;;;;;;;;;;;4942523;28;93013;-76
2024/03/14 11:19:27;;;;;;;;;;;;;;;;;;4942015;28;93290;-77
2024/03/14 11:21:53;;;;;;;;;;;;;;;;;;4946261;28;92270;-77
2024/03/14 11:24:21;;;;;;;;;;;;;;;;;;4941760;28;92681;-77
2024/03/14 11:26:48;;;;;;;;;;;;;;;;;;4942402;28;95565;-76
2024/03/14 11:29:17;;;;;;;;;;;;;;;;;;4942674;28;92771;-76
2024/03/14 11:31:45;;;;;;;;;;;;;;;;;;4943972;28;92042;-77
2024/03/14 11:34:17;;;;;;;;;;;;;;;;;;4942952;28;92558;-76
2024/03/14 11:36:43;;;;;;;;;;;;;;;;;;4940627;28;93078;-76
2024/03/14 11:39:19;;;;;;;;;;;;;;;;;;4939872;28;93883;-77
2024/03/14 11:41:46;;;;;;;;;;;;;;;;;;4945150;28;95052;-77
2024/03/14 11:44:15;;;;;;;;;;;;;;;;;;4942941;28;92889;-76
2024/03/14 11:46:40;;;;;;;;;;;;;;;;;;4942743;28;92499;-75
2024/03/14 11:49:16;;;;;;;;;;;;;;;;;;4942223;28;94193;-76
2024/03/14 11:51:41;;;;;;;;;;;;;;;;;;4943193;28;92792;-76
2024/03/14 11:54:10;;;;;;;;;;;;;;;;;;4942408;28;92818;-75
2024/03/14 11:56:39;;;;;;;;;;;;;;;;;;4943101;28;92477;-76
2024/03/14 11:59:04;;;;;;;;;;;;;;;;;;4941112;28;92792;-76
2024/03/14 12:01:31;;;;;;;;;;;;;;;;;;4942257;28;92731;-76
2024/03/14 12:03:57;;;;;;;;;;;;;;;;;;4944959;28;93757;-76
2024/03/14 12:06:25;;;;;;;;;;;;;;;;;;4942076;28;93304;-76
2024/03/14 12:08:51;;;;;;;;;;;;;;;;;;4941273;28;92204;-76
2024/03/14 12:11:18;;;;;;;;;;;;;;;;;;4942910;28;92860;-74
2024/03/14 12:13:53;;;;;;;;;;;;;;;;;;4940586;28;95637;-74
2024/03/14 12:16:19;;;;;;;;;;;;;;;;;;4942447;28;95132;-76
2024/03/14 12:18:49;;;;;;;;;;;;;;;;;;4942125;28;93163;-75
2024/03/14 12:21:15;;;;;;;;;;;;;;;;;;4943288;28;92698;-78
2024/03/14 12:23:49;;;;;;;;;;;;;;;;;;4940466;28;92698;-76
2024/03/14 12:26:17;;;;;;;;;;;;;;;;;;4943880;28;92746;-76
2024/03/14 12:28:43;;;;;;;;;;;;;;;;;;4938875;28;95747;-76
2024/03/14 12:31:12;;;;;;;;;;;;;;;;;;4940483;28;92536;-76
2024/03/14 12:33:39;;;;;;;;;;;;;;;;;;4945250;28;95532;-75
2024/03/14 12:36:06;;;;;;;;;;;;;;;;;;4941117;28;92307;-76
2024/03/14 12:38:32;;;;;;;;;;;;;;;;;;4939306;28;93402;-77
2024/03/14 12:40:58;;;;;;;;;;;;;;;;;;4939512;28;93071;-74
2024/03/14 12:43:26;;;;;;;;;;;;;;;;;;4940722;28;92950;-75
2024/03/14 12:45:51;;;;;;;;;;;;;;;;;;4941143;28;92391;-76
2024/03/14 12:48:17;;;;;;;;;;;;;;;;;;4942300;28;92744;-77
2024/03/14 12:50:43;;;;;;;;;;;;;;;;;;4940889;28;93115;-76
2024/03/14 12:53:12;;;;;;;;;;;;;;;;;;4939972;28;93775;-76
2024/03/14 12:55:38;;;;;;;;;;;;;;;;;;4940698;28;92337;-76
2024/03/14 12:58:08;;;;;;;;;;;;;;;;;;4941795;28;92421;-76
2024/03/14 13:00:33;;;;;;;;;;;;;;;;;;4943064;28;92842;-76
2024/03/14 13:03:00;;;;;;;;;;;;;;;;;;4943340;28;94867;-75
2024/03/14 13:05:26;;;;;;;;;;;;;;;;;;4942727;28;93666;-76
2024/03/14 13:08:04;;;;;;;;;;;;;;;;;;4944013;28;93196;-75
2024/03/14 13:10:35;;;;;;;;;;;;;;;;;;4947045;28;93223;-75
2024/03/14 13:13:00;;;;;;;;;;;;;;;;;;4942243;28;93747;-75
2024/03/14 13:15:25;;;;;;;;;;;;;;;;;;4944253;28;93174;-74
2024/03/14 13:17:54;;;;;;;;;;;;;;;;;;4943555;28;94098;-74
2024/03/14 13:20:25;;;;;;;;;;;;;;;;;;4943645;28;93356;-75
2024/03/14 13:22:51;;;;;;;;;;;;;;;;;;4944535;28;93152;-73
2024/03/14 13:25:16;;;;;;;;;;;;;;;;;;4944455;28;93561;-75
2024/03/14 13:27:42;;;;;;;;;;;;;;;;;;4944054;28;92689;-75
2024/03/14 13:30:08;;;;;;;;;;;;;;;;;;4944248;28;92820;-76
2024/03/14 13:32:34;;;;;;;;;;;;;;;;;;4945835;28;92869;-73
2024/03/14 13:35:00;;;;;;;;;;;;;;;;;;4944450;28;92001;-75
2024/03/14 13:37:28;;;;;;;;;;;;;;;;;;4943832;28;92580;-76
2024/03/14 13:39:53;;;;;;;;;;;;;;;;;;4944046;28;92984;-74
2024/03/14 13:42:18;;;;;;;;;;;;;;;;;;4937689;28;94378;-76
2024/03/14 13:44:46;;;;;;;;;;;;;;;;;;4937182;28;93167;-77
2024/03/14 13:47:14;;;;;;;;;;;;;;;;;;4940960;28;93022;-76
2024/03/14 13:49:40;;;;;;;;;;;;;;;;;;4934611;28;92804;-76
2024/03/14 13:52:05;;;;;;;;;;;;;;;;;;4929698;28;93613;-77
2024/03/14 13:54:31;;;;;;;;;;;;;;;;;;4940602;28;93776;-74
2024/03/14 13:56:56;;;;;;;;;;;;;;;;;;4936961;28;92859;-77
2024/03/14 13:59:21;;;;;;;;;;;;;;;;;;4937413;28;92821;-74
2024/03/14 14:01:47;;;;;;;;;;;;;;;;;;4938089;28;92924;-78
2024/03/14 14:04:12;;;;;;;;;;;;;;;;;;4929348;28;94150;-77
2024/03/14 14:06:38;;;;;;;;;;;;;;;;;;4943032;28;94369;-77
2024/03/14 14:09:06;;;;;;;;;;;;;;;;;;4939292;28;93216;-77
2024/03/14 14:11:33;;;;;;;;;;;;;;;;;;4936010;28;92822;-75
2024/03/14 14:14:00;;;;;;;;;;;;;;;;;;4939428;28;92538;-77
2024/03/14 14:16:26;;;;;;;;;;;;;;;;;;4929130;28;92803;-76
2024/03/14 14:18:51;;;;;;;;;;;;;;;;;;4933774;28;92732;-76
2024/03/14 14:21:17;;;;;;;;;;;;;;;;;;4935261;28;95397;-74
2024/03/14 14:23:42;;;;;;;;;;;;;;;;;;4943977;28;91527;-76
2024/03/14 14:26:08;;;;;;;;;;;;;;;;;;4936220;28;92192;-77
2024/03/14 14:28:33;;;;;;;;;;;;;;;;;;4937351;28;92681;-76
2024/03/14 14:30:59;;;;;;;;;;;;;;;;;;4939673;28;94246;-76
2024/03/14 14:33:24;;;;;;;;;;;;;;;;;;4940089;28;94189;-76
2024/03/14 14:35:49;;;;;;;;;;;;;;;;;;4939451;28;93729;-75
2024/03/14 14:38:15;;;;;;;;;;;;;;;;;;4934282;28;92664;-76
2024/03/14 14:40:40;;;;;;;;;;;;;;;;;;4935275;28;92828;-76
2024/03/14 14:43:05;;;;;;;;;;;;;;;;;;4933685;28;93498;-74
2024/03/14 14:45:31;;;;;;;;;;;;;;;;;;4933484;28;95592;-75
2024/03/14 14:47:56;;;;;;;;;;;;;;;;;;4924395;28;92253;-74
2024/03/14 14:50:21;;;;;;;;;;;;;;;;;;4928156;28;93070;-73
2024/03/14 14:52:47;;;;;;;;;;;;;;;;;;4946110;28;93635;-75
2024/03/14 14:55:12;;;;;;;;;;;;;;;;;;4941761;28;95232;-74
2024/03/14 14:57:46;;;;;;;;;;;;;;;;;;4944146;28;93705;-75
2024/03/14 15:00:13;;;;;;;;;;;;;;;;;;4934431;28;95247;-74
2024/03/14 15:02:38;;;;;;;;;;;;;;;;;;4932122;28;92684;-75
2024/03/14 15:05:07;;;;;;;;;;;;;;;;;;4931370;28;93042;-74
2024/03/14 15:07:34;;;;;;;;;;;;;;;;;;4957500;28;94927;-74
2024/03/14 15:09:59;;;;;;;;;;;;;;;;;;4938295;28;92853;-74
2024/03/14 15:12:24;;;;;;;;;;;;;;;;;;4932936;28;92109;-74
2024/03/14 15:14:49;;;;;;;;;;;;;;;;;;4930271;28;93077;-74
2024/03/14 15:17:16;;;;;;;;;;;;;;;;;;4932616;28;92964;-73
2024/03/14 15:19:41;;;;;;;;;;;;;;;;;;4936603;28;93165;-73
2024/03/14 15:22:10;;;;;;;;;;;;;;;;;;4939607;28;93124;-72
2024/03/14 15:24:39;;;;;;;;;;;;;;;;;;4934906;28;92686;-73
2024/03/14 15:27:08;;;;;;;;;;;;;;;;;;4933454;28;94929;-75
2024/03/14 15:29:33;;;;;;;;;;;;;;;;;;4931800;28;92714;-73
2024/03/14 15:32:01;;;;;;;;;;;;;;;;;;4932483;28;93859;-75
2024/03/14 15:34:28;;;;;;;;;;;;;;;;;;4932655;28;92651;-74
2024/03/14 15:36:54;;;;;;;;;;;;;;;;;;4934655;28;91820;-74
2024/03/14 15:39:19;;;;;;;;;;;;;;;;;;4933654;28;92684;-74
2024/03/14 15:41:45;;;;;;;;;;;;;;;;;;4937219;28;93242;-74
2024/03/14 15:44:18;;;;;;;;;;;;;;;;;;5073171;27;83367;-77
2024/03/14 15:46:43;;;;;;;;;;;;;;;;;;5035981;27;89517;-74
2024/03/14 15:49:08;;;;;;;;;;;;;;;;;;5026568;27;89677;-75
2024/03/14 15:51:33;;;;;;;;;;;;;;;;;;5033514;27;89649;-75
2024/03/14 15:53:59;;;;;;;;;;;;;;;;;;5040600;27;92695;-74
2024/03/14 15:56:25;;;;;;;;;;;;;;;;;;5035119;27;89732;-75
2024/03/14 15:58:53;;;;;;;;;;;;;;;;;;5031426;27;90179;-75
2024/03/14 16:01:18;;;;;;;;;;;;;;;;;;5032516;27;89746;-75
2024/03/14 16:03:43;;;;;;;;;;;;;;;;;;5036609;27;89543;-76
2024/03/14 16:06:09;;;;;;;;;;;;;;;;;;5033808;27;89758;-75
2024/03/14 16:08:41;;;;;;;;;;;;;;;;;;5028708;27;89578;-75
2024/03/14 16:11:07;;;;;;;;;;;;;;;;;;5034142;27;90116;-74
2024/03/14 16:13:32;;;;;;;;;;;;;;;;;;5023935;27;90302;-75
2024/03/14 16:15:57;;;;;;;;;;;;;;;;;;5030754;27;89633;-74
2024/03/14 16:18:22;;;;;;;;;;;;;;;;;;5029046;27;89298;-74
2024/03/14 16:20:49;;;;;;;;;;;;;;;;;;5033036;27;90257;-74
2024/03/14 16:23:14;;;;;;;;;;;;;;;;;;5036253;27;90564;-76
2024/03/14 16:25:41;;;;;;;;;;;;;;;;;;5027053;27;91130;-74
2024/03/14 16:28:06;;;;;;;;;;;;;;;;;;5022267;27;91917;-75
2024/03/14 16:30:31;;;;;;;;;;;;;;;;;;5025034;27;89723;-74
2024/03/14 16:32:57;;;;;;;;;;;;;;;;;;5035013;27;89824;-73
2024/03/14 16:35:28;;;;;;;;;;;;;;;;;;5032863;27;89803;-74
2024/03/14 16:37:55;;;;;;;;;;;;;;;;;;5031972;27;88936;-75
2024/03/14 16:40:21;;;;;;;;;;;;;;;;;;5037857;27;92225;-74